createdAt,value
2018-04-29T00:01:23.764Z,9.20
2018-04-29T00:03:51.218Z,9.00
2018-04-29T00:06:18.666Z,9.00
2018-04-29T00:08:46.102Z,8.70
2018-04-29T00:11:14.309Z,8.70
2018-04-29T00:13:41.746Z,8.60
2018-04-29T00:16:09.204Z,8.50
2018-04-29T00:18:37.093Z,8.40
2018-04-29T00:21:04.547Z,8.50
2018-04-29T00:23:31.974Z,8.50
2018-04-29T00:26:00.214Z,8.30
2018-04-29T00:28:27.645Z,8.30
2018-04-29T00:30:55.092Z,8.20
2018-04-29T00:33:22.544Z,8.20
2018-04-29T00:35:49.982Z,8.10
2018-04-29T00:38:17.430Z,8.00
2018-04-29T00:40:45.636Z,8.00
2018-04-29T00:43:13.092Z,8.00
2018-04-29T00:45:40.526Z,8.10
2018-04-29T00:48:08.035Z,8.30
2018-04-29T00:50:35.485Z,8.30
2018-04-29T00:53:02.927Z,8.40
2018-04-29T00:55:30.377Z,8.40
2018-04-29T00:57:58.177Z,8.50
2018-04-29T01:00:25.617Z,8.50
2018-04-29T01:02:53.058Z,8.50
2018-04-29T01:05:20.542Z,8.20
2018-04-29T01:07:47.998Z,8.20
2018-04-29T01:10:15.442Z,8.30
2018-04-29T01:12:42.885Z,8.20
2018-04-29T01:15:10.340Z,8.20
2018-04-29T01:17:37.777Z,8.20
2018-04-29T01:20:05.254Z,8.10
2018-04-29T01:22:32.718Z,8.10
2018-04-29T01:25:00.170Z,8.10
2018-04-29T01:27:27.594Z,8.00
2018-04-29T01:29:55.802Z,7.90
2018-04-29T01:32:23.256Z,7.90
2018-04-29T01:34:50.690Z,7.90
2018-04-29T01:37:18.142Z,8.00
2018-04-29T01:39:46.358Z,7.90
2018-04-29T01:42:13.871Z,7.90
2018-04-29T01:44:42.086Z,7.80
2018-04-29T01:47:09.535Z,7.80
2018-04-29T01:49:36.997Z,7.80
2018-04-29T01:52:04.425Z,7.70
2018-04-29T01:54:31.905Z,7.60
2018-04-29T01:56:59.347Z,7.30
2018-04-29T01:59:26.796Z,7.10
2018-04-29T02:01:54.998Z,7.00
2018-04-29T02:04:22.581Z,7.00
2018-04-29T02:06:50.042Z,7.10
2018-04-29T02:09:17.478Z,7.20
2018-04-29T02:11:44.924Z,7.20
2018-04-29T02:14:12.881Z,7.20
2018-04-29T02:16:40.329Z,7.20
2018-04-29T02:19:07.766Z,7.00
2018-04-29T02:21:35.206Z,6.70
2018-04-29T02:24:02.657Z,6.60
2018-04-29T02:26:30.091Z,6.60
2018-04-29T02:28:57.542Z,6.80
2018-04-29T02:31:25.022Z,6.90
2018-04-29T02:33:52.444Z,6.90
2018-04-29T02:36:19.911Z,6.70
2018-04-29T02:38:48.079Z,6.40
2018-04-29T02:41:15.526Z,6.40
2018-04-29T02:43:42.974Z,6.50
2018-04-29T02:46:10.416Z,6.40
2018-04-29T02:48:38.622Z,6.50
2018-04-29T02:51:06.066Z,6.40
2018-04-29T02:53:33.514Z,6.60
2018-04-29T02:56:02.670Z,6.30
2018-04-29T02:58:31.621Z,6.10
2018-04-29T03:00:59.070Z,6.10
2018-04-29T03:03:26.601Z,6.00
2018-04-29T03:05:55.555Z,5.90
2018-04-29T03:08:22.997Z,5.80
2018-04-29T03:10:50.778Z,5.90
2018-04-29T03:13:18.214Z,5.90
2018-04-29T03:15:45.656Z,5.80
2018-04-29T03:18:13.102Z,5.80
2018-04-29T03:20:40.534Z,5.70
2018-04-29T03:23:07.977Z,5.70
2018-04-29T03:25:36.020Z,5.80
2018-04-29T03:28:03.458Z,5.90
2018-04-29T03:30:30.946Z,6.00
2018-04-29T03:32:58.382Z,5.80
2018-04-29T03:35:25.838Z,5.80
2018-04-29T03:37:53.296Z,5.70
2018-04-29T03:40:20.722Z,5.60
2018-04-29T03:42:48.935Z,5.60
2018-04-29T03:45:16.374Z,5.50
2018-04-29T03:47:43.813Z,5.50
2018-04-29T03:50:11.249Z,5.50
2018-04-29T03:52:39.465Z,5.40
2018-04-29T03:55:06.906Z,5.40
2018-04-29T03:57:46.369Z,5.60
2018-04-29T04:00:24.506Z,5.80
2018-04-29T04:03:03.807Z,5.90
2018-04-29T04:05:31.258Z,5.80
2018-04-29T04:07:58.694Z,5.80
2018-04-29T04:10:26.911Z,5.70
2018-04-29T04:12:54.346Z,5.60
2018-04-29T04:15:21.800Z,5.70
2018-04-29T04:17:49.233Z,5.80
2018-04-29T04:20:17.463Z,6.00
2018-04-29T04:22:44.891Z,6.00
2018-04-29T04:25:12.334Z,6.10
2018-04-29T04:27:39.779Z,6.00
2018-04-29T04:30:07.995Z,5.90
2018-04-29T04:32:35.436Z,5.90
2018-04-29T04:35:03.554Z,6.20
2018-04-29T04:37:31.787Z,6.70
2018-04-29T04:39:59.222Z,6.70
2018-04-29T04:42:26.657Z,6.80
2018-04-29T04:44:54.870Z,7.10
2018-04-29T04:47:22.302Z,7.10
2018-04-29T04:49:51.036Z,7.00
2018-04-29T04:52:18.474Z,7.00
2018-04-29T04:54:45.934Z,7.10
2018-04-29T04:57:13.387Z,7.50
2018-04-29T04:59:40.814Z,7.90
2018-04-29T05:02:09.022Z,8.40
2018-04-29T05:04:37.481Z,8.30
2018-04-29T05:07:04.986Z,8.70
2018-04-29T05:09:32.431Z,8.80
2018-04-29T05:11:59.869Z,9.10
2018-04-29T05:14:27.301Z,9.50
2018-04-29T05:16:54.747Z,9.90
2018-04-29T05:19:22.954Z,10.90
2018-04-29T05:21:50.415Z,10.90
2018-04-29T05:24:17.854Z,11.30
2018-04-29T05:26:46.073Z,11.60
2018-04-29T05:29:13.513Z,11.60
2018-04-29T05:31:40.956Z,11.90
2018-04-29T05:34:08.414Z,12.40
2018-04-29T05:36:35.902Z,13.00
2018-04-29T05:39:06.252Z,13.60
2018-04-29T05:41:34.475Z,14.30
2018-04-29T05:44:02.682Z,14.20
2018-04-29T05:46:30.123Z,13.90
2018-04-29T05:48:58.498Z,14.00
2018-04-29T05:51:25.950Z,14.60
2018-04-29T05:53:53.398Z,15.10
2018-04-29T05:56:20.885Z,15.60
2018-04-29T05:58:48.339Z,15.70
2018-04-29T06:01:15.794Z,15.70
2018-04-29T06:03:43.239Z,15.30
2018-04-29T06:06:10.682Z,14.70
2018-04-29T06:08:38.142Z,13.90
2018-04-29T06:11:05.661Z,13.40
2018-04-29T06:13:33.090Z,12.90
2018-04-29T06:16:01.305Z,12.10
2018-04-29T06:18:28.785Z,12.00
2018-04-29T06:20:56.241Z,11.20
2018-04-29T06:23:23.710Z,10.50
2018-04-29T06:25:51.216Z,10.20
2018-04-29T06:28:18.650Z,10.10
2018-04-29T06:30:46.110Z,10.10
2018-04-29T06:33:13.562Z,10.20
2018-04-29T06:35:41.367Z,10.30
2018-04-29T06:38:09.575Z,10.50
2018-04-29T06:40:37.036Z,10.50
2018-04-29T06:43:04.480Z,10.60
2018-04-29T06:45:32.881Z,10.70
2018-04-29T06:48:00.334Z,10.80
2018-04-29T06:50:27.786Z,11.00
2018-04-29T06:52:55.474Z,11.20
2018-04-29T06:55:22.921Z,11.40
2018-04-29T06:57:50.374Z,11.50
2018-04-29T07:00:17.817Z,11.60
2018-04-29T07:02:45.274Z,11.80
2018-04-29T07:05:12.726Z,12.00
2018-04-29T07:07:40.179Z,12.20
2018-04-29T07:10:07.638Z,12.00
2018-04-29T07:12:35.078Z,12.60
2018-04-29T07:15:03.094Z,13.70
2018-04-29T07:17:30.542Z,14.90
2018-04-29T07:19:58.032Z,15.00
2018-04-29T07:22:25.450Z,14.80
2018-04-29T07:24:53.113Z,14.70
2018-04-29T07:27:20.585Z,15.00
2018-04-29T07:29:48.021Z,16.00
2018-04-29T07:32:15.478Z,17.50
2018-04-29T07:34:42.922Z,18.80
2018-04-29T07:37:10.382Z,20.30
2018-04-29T07:39:37.821Z,20.80
2018-04-29T07:42:06.482Z,20.60
2018-04-29T07:44:34.697Z,19.30
2018-04-29T07:47:02.617Z,19.30
2018-04-29T07:49:30.250Z,18.90
2018-04-29T07:51:57.694Z,18.20
2018-04-29T07:54:25.138Z,17.30
2018-04-29T07:56:52.602Z,16.30
2018-04-29T07:59:20.054Z,14.90
2018-04-29T08:01:47.510Z,14.10
2018-04-29T08:04:14.967Z,14.10
2018-04-29T08:06:42.483Z,14.10
2018-04-29T08:09:09.859Z,14.10
2018-04-29T08:11:37.311Z,14.20
2018-04-29T08:14:05.521Z,14.40
2018-04-29T08:16:32.985Z,14.40
2018-04-29T08:19:00.428Z,14.50
2018-04-29T08:21:27.883Z,14.80
2018-04-29T08:23:55.322Z,15.00
2018-04-29T08:26:22.774Z,15.20
2018-04-29T08:28:50.223Z,15.30
2018-04-29T08:31:18.865Z,16.00
2018-04-29T08:33:46.321Z,16.00
2018-04-29T08:36:13.778Z,16.10
2018-04-29T08:38:41.221Z,16.10
2018-04-29T08:41:08.670Z,16.30
2018-04-29T08:43:36.146Z,16.30
2018-04-29T08:46:03.598Z,16.30
2018-04-29T08:48:31.063Z,16.00
2018-04-29T08:50:58.518Z,15.70
2018-04-29T08:53:25.957Z,15.30
2018-04-29T08:55:53.434Z,15.10
2018-04-29T08:58:20.861Z,15.00
2018-04-29T09:00:48.694Z,14.50
2018-04-29T09:03:16.947Z,13.40
2018-04-29T09:05:44.364Z,13.30
2018-04-29T09:08:11.815Z,13.30
2018-04-29T09:10:39.262Z,13.30
2018-04-29T09:13:06.725Z,13.60
2018-04-29T09:15:34.158Z,13.90
2018-04-29T09:18:02.945Z,13.60
2018-04-29T09:20:31.154Z,13.60
2018-04-29T09:22:58.612Z,13.60
2018-04-29T09:25:26.049Z,13.70
2018-04-29T09:27:53.502Z,14.00
2018-04-29T09:30:21.746Z,14.70
2018-04-29T09:32:49.206Z,15.90
2018-04-29T09:35:16.664Z,17.00
2018-04-29T09:37:44.114Z,17.90
2018-04-29T09:40:11.553Z,18.70
2018-04-29T09:42:39.014Z,19.30
2018-04-29T09:45:06.475Z,19.00
2018-04-29T09:47:33.923Z,19.10
2018-04-29T09:50:01.362Z,18.30
2018-04-29T09:52:29.606Z,17.70
2018-04-29T09:54:57.050Z,17.90
2018-04-29T09:57:25.290Z,18.70
2018-04-29T09:59:52.727Z,18.70
2018-04-29T10:02:24.145Z,18.70
2018-04-29T10:04:51.587Z,18.70
2018-04-29T10:07:19.799Z,18.00
2018-04-29T10:09:47.250Z,18.00
2018-04-29T10:12:14.693Z,17.80
2018-04-29T10:14:42.165Z,18.00
2018-04-29T10:17:09.608Z,18.30
2018-04-29T10:19:37.053Z,18.40
2018-04-29T10:22:05.267Z,19.70
2018-04-29T10:24:32.814Z,19.70
2018-04-29T10:27:00.182Z,20.10
2018-04-29T10:29:28.138Z,20.60
2018-04-29T10:31:55.578Z,20.20
2018-04-29T10:34:23.034Z,20.10
2018-04-29T10:36:50.469Z,20.00
2018-04-29T10:39:18.694Z,19.50
2018-04-29T10:41:46.146Z,19.50
2018-04-29T10:44:14.535Z,19.80
2018-04-29T10:46:41.974Z,20.10
2018-04-29T10:49:09.434Z,20.00
2018-04-29T10:51:36.897Z,20.30
2018-04-29T10:54:04.358Z,21.10
2018-04-29T10:56:31.807Z,21.80
2018-04-29T10:58:59.246Z,22.50
2018-04-29T11:01:26.693Z,23.00
2018-04-29T11:03:54.138Z,22.60
2018-04-29T11:06:22.366Z,22.30
2018-04-29T11:08:49.805Z,22.20
2018-04-29T11:11:17.257Z,22.00
2018-04-29T11:13:44.697Z,22.00
2018-04-29T11:16:12.149Z,22.10
2018-04-29T11:18:40.853Z,22.70
2018-04-29T11:21:08.297Z,22.70
2018-04-29T11:23:35.802Z,22.60
2018-04-29T11:26:03.250Z,22.40
2018-04-29T11:28:30.719Z,22.40
2018-04-29T11:30:58.162Z,22.30
2018-04-29T11:33:25.617Z,22.70
2018-04-29T11:35:53.059Z,22.90
2018-04-29T11:38:20.555Z,23.00
2018-04-29T11:40:47.975Z,23.60
2018-04-29T11:43:15.409Z,23.90
2018-04-29T11:45:42.861Z,24.20
2018-04-29T11:48:10.717Z,24.40
2018-04-29T11:50:39.382Z,24.90
2018-04-29T11:53:06.896Z,24.80
2018-04-29T11:55:34.350Z,24.50
2018-04-29T11:58:02.106Z,23.70
2018-04-29T12:00:30.438Z,23.00
2018-04-29T12:02:57.878Z,22.60
2018-04-29T12:05:25.320Z,22.60
2018-04-29T12:07:52.778Z,22.50
2018-04-29T12:10:20.225Z,22.20
2018-04-29T12:12:47.670Z,22.60
2018-04-29T12:15:15.114Z,23.00
2018-04-29T12:17:42.782Z,23.20
2018-04-29T12:20:10.529Z,23.50
2018-04-29T12:22:38.862Z,23.70
2018-04-29T12:25:06.314Z,23.70
2018-04-29T12:27:33.753Z,23.70
2018-04-29T12:30:01.234Z,23.80
2018-04-29T12:32:28.674Z,23.90
2018-04-29T12:34:56.123Z,23.90
2018-04-29T12:37:23.590Z,24.10
2018-04-29T12:39:51.480Z,24.00
2018-04-29T12:42:18.914Z,23.90
2018-04-29T12:44:46.375Z,24.20
2018-04-29T12:47:13.815Z,24.30
2018-04-29T12:49:41.317Z,24.40
2018-04-29T12:52:09.541Z,24.60
2018-04-29T12:54:37.737Z,24.90
2018-04-29T12:57:05.189Z,24.90
2018-04-29T12:59:32.646Z,24.90
2018-04-29T13:02:00.093Z,25.20
2018-04-29T13:04:27.560Z,25.40
2018-04-29T13:06:54.994Z,25.50
2018-04-29T13:09:22.458Z,25.40
2018-04-29T13:11:49.894Z,25.50
2018-04-29T13:14:18.110Z,25.00
2018-04-29T13:16:45.549Z,25.00
2018-04-29T13:19:13.007Z,25.40
2018-04-29T13:21:40.445Z,25.90
2018-04-29T13:24:07.934Z,25.60
2018-04-29T13:26:35.386Z,25.90
2018-04-29T13:29:02.909Z,25.80
2018-04-29T13:31:31.134Z,26.10
2018-04-29T13:33:59.114Z,26.10
2018-04-29T13:36:26.565Z,26.00
2018-04-29T13:38:54.006Z,25.90
2018-04-29T13:41:21.482Z,25.90
2018-04-29T13:43:48.946Z,25.90
2018-04-29T13:46:16.498Z,25.80
2018-04-29T13:48:43.964Z,26.00
2018-04-29T13:51:11.419Z,25.90
2018-04-29T13:53:38.850Z,26.00
2018-04-29T13:56:06.306Z,26.40
2018-04-29T13:58:33.751Z,26.30
2018-04-29T14:01:01.267Z,26.70
2018-04-29T14:03:28.716Z,27.00
2018-04-29T14:05:56.122Z,26.40
2018-04-29T14:08:23.570Z,26.40
2018-04-29T14:10:51.569Z,26.70
2018-04-29T14:13:19.242Z,26.60
2018-04-29T14:15:46.697Z,26.70
2018-04-29T14:18:14.149Z,26.90
2018-04-29T14:20:41.598Z,26.30
2018-04-29T14:23:09.054Z,26.10
2018-04-29T14:25:36.494Z,26.40
2018-04-29T14:28:03.954Z,26.10
2018-04-29T14:30:31.418Z,26.50
2018-04-29T14:32:58.876Z,27.20
2018-04-29T14:35:26.321Z,26.50
2018-04-29T14:37:53.775Z,26.10
2018-04-29T14:40:21.266Z,26.00
2018-04-29T14:42:48.727Z,25.90
2018-04-29T14:45:16.161Z,25.80
2018-04-29T14:47:43.606Z,25.70
2018-04-29T14:50:11.072Z,25.80
2018-04-29T14:52:38.520Z,26.30
2018-04-29T14:55:05.972Z,26.80
2018-04-29T14:57:33.431Z,26.20
2018-04-29T15:00:00.934Z,25.50
2018-04-29T15:02:28.335Z,25.80
2018-04-29T15:04:55.775Z,26.50
2018-04-29T15:07:23.995Z,25.80
2018-04-29T15:09:51.861Z,25.80
2018-04-29T15:12:19.303Z,25.50
2018-04-29T15:14:46.759Z,25.10
2018-04-29T15:17:14.193Z,24.60
2018-04-29T15:19:48.413Z,24.40
2018-04-29T15:22:15.850Z,24.60
2018-04-29T15:24:44.065Z,24.80
2018-04-29T15:27:11.515Z,24.80
2018-04-29T15:29:38.972Z,24.50
2018-04-29T15:32:06.410Z,24.00
2018-04-29T15:34:33.858Z,24.00
2018-04-29T15:37:02.083Z,24.00
2018-04-29T15:39:29.522Z,24.00
2018-04-29T15:41:56.981Z,24.10
2018-04-29T15:44:24.435Z,24.20
2018-04-29T15:46:51.898Z,23.90
2018-04-29T15:49:19.336Z,23.70
2018-04-29T15:51:46.774Z,23.40
2018-04-29T15:54:14.993Z,23.20
2018-04-29T15:56:42.482Z,23.20
2018-04-29T15:59:09.933Z,23.20
2018-04-29T16:01:37.390Z,23.30
2018-04-29T16:04:04.937Z,23.50
2018-04-29T16:06:32.381Z,23.40
2018-04-29T16:08:59.846Z,23.20
2018-04-29T16:11:27.303Z,23.30
2018-04-29T16:13:54.741Z,23.40
2018-04-29T16:16:22.209Z,23.60
2018-04-29T16:18:49.673Z,23.80
2018-04-29T16:21:17.118Z,23.90
2018-04-29T16:23:44.566Z,23.90
2018-04-29T16:26:12.014Z,23.60
2018-04-29T16:28:39.462Z,23.60
2018-04-29T16:31:06.967Z,23.70
2018-04-29T16:33:34.406Z,23.90
2018-04-29T16:36:02.706Z,24.00
2018-04-29T16:38:30.162Z,24.10
2018-04-29T16:40:57.606Z,23.90
2018-04-29T16:43:25.061Z,23.80
2018-04-29T16:45:53.528Z,23.70
2018-04-29T16:48:20.982Z,23.70
2018-04-29T16:50:48.666Z,23.70
2018-04-29T16:53:16.126Z,23.30
2018-04-29T16:55:43.561Z,23.10
2018-04-29T16:58:11.034Z,23.00
2018-04-29T17:00:38.606Z,23.10
2018-04-29T17:03:06.055Z,23.10
2018-04-29T17:05:33.526Z,23.20
2018-04-29T17:08:00.962Z,23.30
2018-04-29T17:10:28.417Z,23.30
2018-04-29T17:12:56.029Z,23.30
2018-04-29T17:15:24.416Z,23.40
2018-04-29T17:17:51.857Z,23.40
2018-04-29T17:20:20.073Z,23.20
2018-04-29T17:22:47.527Z,23.20
2018-04-29T17:25:14.985Z,23.20
2018-04-29T17:27:42.444Z,23.10
2018-04-29T17:30:09.877Z,23.00
2018-04-29T17:32:37.337Z,22.90
2018-04-29T17:35:04.773Z,22.80
2018-04-29T17:37:32.999Z,22.50
2018-04-29T17:40:00.442Z,22.50
2018-04-29T17:42:27.906Z,22.40
2018-04-29T17:44:55.357Z,22.30
2018-04-29T17:47:22.801Z,22.10
2018-04-29T17:49:50.303Z,21.90
2018-04-29T17:52:17.737Z,21.80
2018-04-29T17:54:45.205Z,21.70
2018-04-29T17:57:12.659Z,21.60
2018-04-29T17:59:40.129Z,21.50
2018-04-29T18:02:07.590Z,21.50
2018-04-29T18:04:35.035Z,21.50
2018-04-29T18:07:02.493Z,21.30
2018-04-29T18:09:29.942Z,21.20
2018-04-29T18:11:57.395Z,21.20
2018-04-29T18:14:24.850Z,21.10
2018-04-29T18:16:52.299Z,20.90
2018-04-29T18:19:19.754Z,20.50
2018-04-29T18:21:47.211Z,20.20
2018-04-29T18:24:14.664Z,19.90
2018-04-29T18:26:42.114Z,19.60
2018-04-29T18:29:09.557Z,19.40
2018-04-29T18:31:37.010Z,19.10
2018-04-29T18:34:05.253Z,19.00
2018-04-29T18:36:32.698Z,18.90
2018-04-29T18:39:00.177Z,18.90
2018-04-29T18:41:27.597Z,19.00
2018-04-29T18:43:55.570Z,19.10
2018-04-29T18:46:23.791Z,18.80
2018-04-29T18:48:52.026Z,18.70
2018-04-29T18:51:19.583Z,18.60
2018-04-29T18:53:46.958Z,18.70
2018-04-29T18:56:14.389Z,18.70
2018-04-29T18:58:41.829Z,18.70
2018-04-29T19:01:09.272Z,18.70
2018-04-29T19:03:36.722Z,18.70
2018-04-29T19:06:04.168Z,18.60
2018-04-29T19:08:32.385Z,18.30
2018-04-29T19:10:59.858Z,18.20
2018-04-29T19:13:27.299Z,18.10
2018-04-29T19:15:54.762Z,17.90
2018-04-29T19:18:22.211Z,17.70
2018-04-29T19:20:49.659Z,17.60
2018-04-29T19:23:17.106Z,17.50
2018-04-29T19:25:44.605Z,17.50
2018-04-29T19:28:12.054Z,17.50
2018-04-29T19:30:39.526Z,17.40
2018-04-29T19:33:06.978Z,17.50
2018-04-29T19:35:34.418Z,17.40
2018-04-29T19:38:01.885Z,17.30
2018-04-29T19:40:29.325Z,17.30
2018-04-29T19:42:56.784Z,17.40
2018-04-29T19:45:24.229Z,17.50
2018-04-29T19:47:51.680Z,17.70
2018-04-29T19:50:19.177Z,17.70
2018-04-29T19:52:46.646Z,17.70
2018-04-29T19:55:14.129Z,17.60
2018-04-29T19:57:41.550Z,17.50
2018-04-29T20:00:09.107Z,17.50
2018-04-29T20:02:36.564Z,17.40
2018-04-29T20:05:04.037Z,17.30
2018-04-29T20:07:31.718Z,17.10
2018-04-29T20:09:59.938Z,16.80
2018-04-29T20:12:28.432Z,16.80
2018-04-29T20:14:56.199Z,16.70
2018-04-29T20:17:23.647Z,16.60
2018-04-29T20:19:51.100Z,16.50
2018-04-29T20:22:18.547Z,16.50
2018-04-29T20:24:46.022Z,16.50
2018-04-29T20:27:13.481Z,16.50
2018-04-29T20:29:40.944Z,16.50
2018-04-29T20:32:08.402Z,16.50
2018-04-29T20:34:35.850Z,16.50
2018-04-29T20:37:03.722Z,16.60
2018-04-29T20:39:31.174Z,16.60
2018-04-29T20:41:58.621Z,16.60
2018-04-29T20:44:26.600Z,16.60
2018-04-29T20:46:54.038Z,16.60
2018-04-29T20:49:21.521Z,16.70
2018-04-29T20:51:48.961Z,16.70
2018-04-29T20:54:16.417Z,16.70
2018-04-29T20:56:43.862Z,16.60
2018-04-29T20:59:11.302Z,16.30
2018-04-29T21:01:38.760Z,16.30
2018-04-29T21:04:06.203Z,16.20
2018-04-29T21:06:34.447Z,16.20
2018-04-29T21:09:01.892Z,16.20
2018-04-29T21:11:29.340Z,16.10
2018-04-29T21:13:56.787Z,16.00
2018-04-29T21:16:24.234Z,15.90
2018-04-29T21:18:51.714Z,15.80
2018-04-29T21:21:19.165Z,15.70
2018-04-29T21:23:46.605Z,15.70
2018-04-29T21:26:14.082Z,15.70
2018-04-29T21:28:41.526Z,15.80
2018-04-29T21:31:08.965Z,15.70
2018-04-29T21:33:36.419Z,15.60
2018-04-29T21:36:03.866Z,15.50
2018-04-29T21:38:31.335Z,15.50
2018-04-29T21:40:58.773Z,15.50
2018-04-29T21:43:27.133Z,15.50
2018-04-29T21:45:54.598Z,15.50
2018-04-29T21:48:22.816Z,15.60
2018-04-29T21:50:50.275Z,15.60
2018-04-29T21:53:17.750Z,15.60
2018-04-29T21:55:45.211Z,15.70
2018-04-29T21:58:12.650Z,15.80
2018-04-29T22:00:40.102Z,15.90
2018-04-29T22:03:07.555Z,15.90
2018-04-29T22:05:35.011Z,16.00
2018-04-29T22:08:02.475Z,16.10
2018-04-29T22:10:29.916Z,16.20
2018-04-29T22:13:03.130Z,16.20
2018-04-29T22:15:30.574Z,16.40
2018-04-29T22:17:58.030Z,16.40
2018-04-29T22:20:25.473Z,16.60
2018-04-29T22:22:52.933Z,16.50
2018-04-29T22:25:20.377Z,16.50
2018-04-29T22:27:48.592Z,16.60
2018-04-29T22:30:16.032Z,16.50
2018-04-29T22:32:43.490Z,16.50
2018-04-29T22:35:10.934Z,16.50
2018-04-29T22:37:38.430Z,16.60
2018-04-29T22:40:05.888Z,16.60
2018-04-29T22:42:33.326Z,16.70
2018-04-29T22:45:00.774Z,16.70
2018-04-29T22:47:28.219Z,16.90
2018-04-29T22:49:55.670Z,17.00
2018-04-29T22:52:23.117Z,17.00
2018-04-29T22:54:51.337Z,17.00
2018-04-29T22:57:18.790Z,16.90
2018-04-29T22:59:46.254Z,17.00
2018-04-29T23:02:13.690Z,17.10
2018-04-29T23:04:41.178Z,17.10
2018-04-29T23:07:08.661Z,16.90
2018-04-29T23:09:36.614Z,16.70
2018-04-29T23:12:04.053Z,16.70
2018-04-29T23:14:31.515Z,16.60
2018-04-29T23:16:58.958Z,16.70
2018-04-29T23:19:27.321Z,16.70
2018-04-29T23:21:54.772Z,16.60
2018-04-29T23:24:22.222Z,16.60
2018-04-29T23:26:49.677Z,16.50
2018-04-29T23:29:17.230Z,16.30
2018-04-29T23:31:44.670Z,16.40
2018-04-29T23:34:12.891Z,16.40
2018-04-29T23:36:40.334Z,16.30
2018-04-29T23:39:08.590Z,16.40
2018-04-29T23:41:36.829Z,16.30
2018-04-29T23:44:04.274Z,16.30
2018-04-29T23:46:31.718Z,16.40
2018-04-29T23:48:59.189Z,16.40
2018-04-29T23:51:26.638Z,16.50
2018-04-29T23:53:54.099Z,16.50
2018-04-29T23:56:21.547Z,16.50
2018-04-29T23:58:49.010Z,16.50
